sensor_id;sensor_type;location;lat;lon;timestamp;pressure;altitude;pressure_sealevel;temperature;humidity
52291;BME280;39663;45.432;28.050;2023-12-28T00:00:18;102502.70;;;10.68;35.43
52291;BME280;39663;45.432;28.050;2023-12-28T00:00:50;102505.17;;;10.57;35.16
52291;BME280;39663;45.432;28.050;2023-12-28T00:01:23;102507.60;;;10.72;35.69
52291;BME280;39663;45.432;28.050;2023-12-28T00:01:54;102509.18;;;10.26;36.57
52291;BME280;39663;45.432;28.050;2023-12-28T00:02:26;102508.28;;;10.34;35.57
52291;BME280;39663;45.432;28.050;2023-12-28T00:02:57;102511.44;;;9.82;36.31
52291;BME280;39663;45.432;28.050;2023-12-28T00:03:28;102511.40;;;10.06;36.45
52291;BME280;39663;45.432;28.050;2023-12-28T00:04:00;102512.90;;;9.81;36.44
52291;BME280;39663;45.432;28.050;2023-12-28T00:04:31;102512.87;;;9.62;36.78
52291;BME280;39663;45.432;28.050;2023-12-28T00:05:04;102514.96;;;9.55;37.05
52291;BME280;39663;45.432;28.050;2023-12-28T00:05:35;102515.19;;;9.24;37.51
52291;BME280;39663;45.432;28.050;2023-12-28T00:06:08;102514.60;;;9.22;37.46
52291;BME280;39663;45.432;28.050;2023-12-28T00:06:39;102515.20;;;8.91;37.54
52291;BME280;39663;45.432;28.050;2023-12-28T00:07:11;102516.97;;;8.61;38.34
52291;BME280;39663;45.432;28.050;2023-12-28T00:07:42;102517.29;;;8.13;39.32
52291;BME280;39663;45.432;28.050;2023-12-28T00:08:14;102518.16;;;7.79;39.31
52291;BME280;39663;45.432;28.050;2023-12-28T00:08:46;102517.40;;;8.69;39.10
52291;BME280;39663;45.432;28.050;2023-12-28T00:09:18;102520.65;;;8.46;38.91
52291;BME280;39663;45.432;28.050;2023-12-28T00:09:50;102520.47;;;8.18;39.12
52291;BME280;39663;45.432;28.050;2023-12-28T00:10:21;102522.56;;;8.09;39.47
52291;BME280;39663;45.432;28.050;2023-12-28T00:10:53;102522.00;;;8.37;39.23
52291;BME280;39663;45.432;28.050;2023-12-28T00:11:24;102523.31;;;8.46;39.58
52291;BME280;39663;45.432;28.050;2023-12-28T00:11:56;102522.93;;;8.70;38.91
52291;BME280;39663;45.432;28.050;2023-12-28T00:12:27;102522.07;;;8.76;38.81
52291;BME280;39663;45.432;28.050;2023-12-28T00:12:59;102524.66;;;8.81;39.00
52291;BME280;39663;45.432;28.050;2023-12-28T00:13:30;102524.71;;;9.14;39.16
52291;BME280;39663;45.432;28.050;2023-12-28T00:14:02;102522.26;;;9.31;38.46
52291;BME280;39663;45.432;28.050;2023-12-28T00:14:33;102522.08;;;8.79;38.38
52291;BME280;39663;45.432;28.050;2023-12-28T00:15:05;102519.56;;;8.93;38.39
52291;BME280;39663;45.432;28.050;2023-12-28T00:15:37;102521.47;;;9.07;39.34
52291;BME280;39663;45.432;28.050;2023-12-28T00:16:09;102519.48;;;9.28;39.30
52291;BME280;39663;45.432;28.050;2023-12-28T00:16:40;102521.58;;;9.58;39.27
52291;BME280;39663;45.432;28.050;2023-12-28T00:17:12;102521.81;;;9.38;39.41
52291;BME280;39663;45.432;28.050;2023-12-28T00:17:43;102522.48;;;9.89;38.42
52291;BME280;39663;45.432;28.050;2023-12-28T00:18:15;102521.88;;;9.86;37.84
52291;BME280;39663;45.432;28.050;2023-12-28T00:18:46;102524.36;;;10.19;37.87
52291;BME280;39663;45.432;28.050;2023-12-28T00:19:18;102524.61;;;10.06;37.19
52291;BME280;39663;45.432;28.050;2023-12-28T00:19:50;102525.77;;;10.02;37.76
52291;BME280;39663;45.432;28.050;2023-12-28T00:20:21;102524.74;;;10.11;37.12
52291;BME280;39663;45.432;28.050;2023-12-28T00:20:53;102526.39;;;10.17;36.99
52291;BME280;39663;45.432;28.050;2023-12-28T00:21:25;102525.32;;;9.98;36.82
52291;BME280;39663;45.432;28.050;2023-12-28T00:21:56;102528.54;;;9.92;37.22
52291;BME280;39663;45.432;28.050;2023-12-28T00:22:28;102529.04;;;9.69;36.88
52291;BME280;39663;45.432;28.050;2023-12-28T00:22:59;102525.37;;;9.80;36.84
52291;BME280;39663;45.432;28.050;2023-12-28T00:23:31;102527.99;;;9.67;37.02
52291;BME280;39663;45.432;28.050;2023-12-28T00:24:03;102531.01;;;9.60;37.12
52291;BME280;39663;45.432;28.050;2023-12-28T00:24:34;102531.24;;;9.47;37.63
52291;BME280;39663;45.432;28.050;2023-12-28T00:25:07;102529.56;;;9.35;37.60
52291;BME280;39663;45.432;28.050;2023-12-28T00:25:38;102530.02;;;9.36;37.66
52291;BME280;39663;45.432;28.050;2023-12-28T00:26:10;102529.55;;;9.25;37.49
52291;BME280;39663;45.432;28.050;2023-12-28T00:26:41;102529.55;;;8.97;37.88
52291;BME280;39663;45.432;28.050;2023-12-28T00:27:13;102530.87;;;8.96;39.37
52291;BME280;39663;45.432;28.050;2023-12-28T00:27:44;102532.69;;;9.11;39.40
52291;BME280;39663;45.432;28.050;2023-12-28T00:28:16;102531.11;;;9.34;38.87
52291;BME280;39663;45.432;28.050;2023-12-28T00:28:47;102534.35;;;9.51;39.09
52291;BME280;39663;45.432;28.050;2023-12-28T00:29:19;102531.52;;;9.75;38.69
52291;BME280;39663;45.432;28.050;2023-12-28T00:29:50;102534.07;;;9.95;37.66
52291;BME280;39663;45.432;28.050;2023-12-28T00:30:21;102536.17;;;10.05;37.58
52291;BME280;39663;45.432;28.050;2023-12-28T00:30:53;102540.46;;;10.14;37.55
52291;BME280;39663;45.432;28.050;2023-12-28T00:31:24;102541.01;;;9.96;37.07
52291;BME280;39663;45.432;28.050;2023-12-28T00:31:56;102543.90;;;10.14;37.32
52291;BME280;39663;45.432;28.050;2023-12-28T00:32:27;102545.54;;;10.30;36.57
52291;BME280;39663;45.432;28.050;2023-12-28T00:32:59;102547.57;;;10.09;37.09
52291;BME280;39663;45.432;28.050;2023-12-28T00:33:31;102550.24;;;10.29;36.23
52291;BME280;39663;45.432;28.050;2023-12-28T00:34:02;102550.70;;;10.26;36.69
52291;BME280;39663;45.432;28.050;2023-12-28T00:34:33;102551.35;;;10.17;36.73
52291;BME280;39663;45.432;28.050;2023-12-28T00:35:05;102551.44;;;10.03;36.28
52291;BME280;39663;45.432;28.050;2023-12-28T00:35:37;102554.09;;;9.90;36.80
52291;BME280;39663;45.432;28.050;2023-12-28T00:36:08;102555.36;;;9.87;36.65
52291;BME280;39663;45.432;28.050;2023-12-28T00:36:40;102556.61;;;9.73;37.42
52291;BME280;39663;45.432;28.050;2023-12-28T00:37:11;102558.43;;;9.74;37.14
52291;BME280;39663;45.432;28.050;2023-12-28T00:37:43;102558.54;;;9.46;36.97
52291;BME280;39663;45.432;28.050;2023-12-28T00:38:15;102560.72;;;9.40;37.76
52291;BME280;39663;45.432;28.050;2023-12-28T00:38:46;102562.23;;;9.39;38.51
52291;BME280;39663;45.432;28.050;2023-12-28T00:39:17;102559.41;;;9.46;37.42
52291;BME280;39663;45.432;28.050;2023-12-28T00:39:49;102559.36;;;9.27;37.47
52291;BME280;39663;45.432;28.050;2023-12-28T00:40:21;102562.11;;;9.63;37.67
52291;BME280;39663;45.432;28.050;2023-12-28T00:40:52;102563.95;;;9.62;38.05
52291;BME280;39663;45.432;28.050;2023-12-28T00:41:24;102564.22;;;9.08;37.40
52291;BME280;39663;45.432;28.050;2023-12-28T00:41:55;102566.59;;;8.43;38.17
52291;BME280;39663;45.432;28.050;2023-12-28T00:42:27;102573.31;;;8.31;39.02
52291;BME280;39663;45.432;28.050;2023-12-28T00:42:58;102571.73;;;8.99;39.30
52291;BME280;39663;45.432;28.050;2023-12-28T00:43:30;102573.45;;;8.38;38.54
52291;BME280;39663;45.432;28.050;2023-12-28T00:44:01;102573.81;;;8.51;38.94
52291;BME280;39663;45.432;28.050;2023-12-28T00:44:33;102574.82;;;8.36;38.48
52291;BME280;39663;45.432;28.050;2023-12-28T00:45:05;102575.59;;;8.31;38.92
52291;BME280;39663;45.432;28.050;2023-12-28T00:45:37;102576.81;;;8.75;39.62
52291;BME280;39663;45.432;28.050;2023-12-28T00:46:08;102576.96;;;9.16;39.76
52291;BME280;39663;45.432;28.050;2023-12-28T00:46:41;102575.10;;;9.08;38.09
52291;BME280;39663;45.432;28.050;2023-12-28T00:47:13;102574.66;;;8.75;38.07
52291;BME280;39663;45.432;28.050;2023-12-28T00:47:44;102572.75;;;8.80;38.27
52291;BME280;39663;45.432;28.050;2023-12-28T00:48:16;102573.40;;;8.65;38.50
52291;BME280;39663;45.432;28.050;2023-12-28T00:48:47;102571.36;;;8.73;39.10
52291;BME280;39663;45.432;28.050;2023-12-28T00:49:19;102572.21;;;8.71;38.05
52291;BME280;39663;45.432;28.050;2023-12-28T00:49:50;102569.17;;;8.93;38.20
52291;BME280;39663;45.432;28.050;2023-12-28T00:50:22;102569.91;;;8.53;38.30
52291;BME280;39663;45.432;28.050;2023-12-28T00:50:53;102572.44;;;8.83;38.30
52291;BME280;39663;45.432;28.050;2023-12-28T00:51:25;102572.16;;;8.21;38.91
52291;BME280;39663;45.432;28.050;2023-12-28T00:51:56;102569.56;;;8.26;39.13
52291;BME280;39663;45.432;28.050;2023-12-28T00:52:28;102571.69;;;7.84;39.30
52291;BME280;39663;45.432;28.050;2023-12-28T00:52:59;102569.83;;;7.82;39.73
52291;BME280;39663;45.432;28.050;2023-12-28T00:53:30;102569.38;;;7.59;39.96
52291;BME280;39663;45.432;28.050;2023-12-28T00:54:02;102571.78;;;8.03;39.94
52291;BME280;39663;45.432;28.050;2023-12-28T00:54:35;102573.04;;;8.23;39.97
52291;BME280;39663;45.432;28.050;2023-12-28T00:55:07;102572.22;;;8.13;39.60
52291;BME280;39663;45.432;28.050;2023-12-28T00:55:39;102573.34;;;7.81;39.57
52291;BME280;39663;45.432;28.050;2023-12-28T00:56:10;102575.67;;;7.65;40.03
52291;BME280;39663;45.432;28.050;2023-12-28T00:56:42;102573.75;;;7.94;40.87
52291;BME280;39663;45.432;28.050;2023-12-28T00:57:13;102575.28;;;8.02;39.70
52291;BME280;39663;45.432;28.050;2023-12-28T00:57:45;102578.11;;;7.89;39.95
52291;BME280;39663;45.432;28.050;2023-12-28T00:58:16;102577.46;;;7.98;39.84
52291;BME280;39663;45.432;28.050;2023-12-28T00:58:47;102579.45;;;8.28;40.38
52291;BME280;39663;45.432;28.050;2023-12-28T01:02:55;102564.84;;;7.84;39.43
52291;BME280;39663;45.432;28.050;2023-12-28T01:03:27;102562.73;;;7.81;40.22
52291;BME280;39663;45.432;28.050;2023-12-28T01:03:58;102561.90;;;7.83;39.83
52291;BME280;39663;45.432;28.050;2023-12-28T01:04:30;102560.78;;;7.63;39.57
52291;BME280;39663;45.432;28.050;2023-12-28T01:05:01;102557.81;;;7.40;39.57
52291;BME280;39663;45.432;28.050;2023-12-28T01:05:33;102559.00;;;7.73;40.19
52291;BME280;39663;45.432;28.050;2023-12-28T01:06:05;102560.63;;;7.47;39.74
52291;BME280;39663;45.432;28.050;2023-12-28T01:06:36;102561.06;;;7.19;39.89
52291;BME280;39663;45.432;28.050;2023-12-28T01:07:08;102560.55;;;7.37;40.46
52291;BME280;39663;45.432;28.050;2023-12-28T01:07:40;102562.10;;;7.26;39.81
52291;BME280;39663;45.432;28.050;2023-12-28T01:08:12;102565.64;;;6.73;40.63
52291;BME280;39663;45.432;28.050;2023-12-28T01:08:43;102565.38;;;7.04;40.27
52291;BME280;39663;45.432;28.050;2023-12-28T01:09:15;102569.62;;;7.04;40.57
52291;BME280;39663;45.432;28.050;2023-12-28T01:09:46;102564.49;;;7.23;40.05
52291;BME280;39663;45.432;28.050;2023-12-28T01:10:17;102567.26;;;7.22;39.97
52291;BME280;39663;45.432;28.050;2023-12-28T01:10:49;102573.06;;;6.45;40.59
52291;BME280;39663;45.432;28.050;2023-12-28T01:11:21;102573.09;;;6.55;41.00
52291;BME280;39663;45.432;28.050;2023-12-28T01:11:53;102569.60;;;7.21;40.67
52291;BME280;39663;45.432;28.050;2023-12-28T01:12:25;102570.16;;;7.89;39.99
52291;BME280;39663;45.432;28.050;2023-12-28T01:12:57;102574.22;;;7.97;41.07
52291;BME280;39663;45.432;28.050;2023-12-28T01:13:28;102576.10;;;8.31;41.13
52291;BME280;39663;45.432;28.050;2023-12-28T01:14:00;102577.93;;;8.48;40.60
52291;BME280;39663;45.432;28.050;2023-12-28T01:14:31;102574.04;;;8.88;40.16
52291;BME280;39663;45.432;28.050;2023-12-28T01:15:05;102572.27;;;7.95;39.81
52291;BME280;39663;45.432;28.050;2023-12-28T01:15:36;102572.55;;;8.29;39.48
52291;BME280;39663;45.432;28.050;2023-12-28T01:16:08;102566.37;;;9.03;38.58
52291;BME280;39663;45.432;28.050;2023-12-28T01:16:40;102565.31;;;9.45;37.70
52291;BME280;39663;45.432;28.050;2023-12-28T01:17:11;102565.33;;;9.50;37.26
52291;BME280;39663;45.432;28.050;2023-12-28T01:17:43;102564.29;;;9.56;37.32
52291;BME280;39663;45.432;28.050;2023-12-28T01:18:14;102563.08;;;9.63;37.57
52291;BME280;39663;45.432;28.050;2023-12-28T01:18:46;102559.71;;;9.64;37.14
52291;BME280;39663;45.432;28.050;2023-12-28T01:19:17;102555.85;;;9.67;38.47
52291;BME280;39663;45.432;28.050;2023-12-28T01:19:49;102552.64;;;9.79;38.09
52291;BME280;39663;45.432;28.050;2023-12-28T01:20:20;102551.98;;;9.95;38.71
52291;BME280;39663;45.432;28.050;2023-12-28T01:20:52;102547.94;;;10.11;38.70
52291;BME280;39663;45.432;28.050;2023-12-28T01:21:23;102546.10;;;10.28;38.89
52291;BME280;39663;45.432;28.050;2023-12-28T01:21:55;102541.74;;;10.43;38.72
52291;BME280;39663;45.432;28.050;2023-12-28T01:22:26;102539.07;;;10.57;38.63
52291;BME280;39663;45.432;28.050;2023-12-28T01:22:58;102537.92;;;10.69;38.84
52291;BME280;39663;45.432;28.050;2023-12-28T01:23:29;102535.53;;;10.81;37.81
52291;BME280;39663;45.432;28.050;2023-12-28T01:24:01;102532.06;;;10.85;38.99
52291;BME280;39663;45.432;28.050;2023-12-28T01:24:33;102528.98;;;11.02;36.32
52291;BME280;39663;45.432;28.050;2023-12-28T01:25:05;102528.21;;;11.03;37.25
52291;BME280;39663;45.432;28.050;2023-12-28T01:25:36;102523.97;;;10.81;35.37
52291;BME280;39663;45.432;28.050;2023-12-28T01:26:13;102528.55;;;10.69;35.89
52291;BME280;39663;45.432;28.050;2023-12-28T01:26:44;102527.72;;;10.57;35.70
52291;BME280;39663;45.432;28.050;2023-12-28T01:27:16;102524.43;;;10.33;35.35
52291;BME280;39663;45.432;28.050;2023-12-28T01:27:47;102523.45;;;10.16;35.43
52291;BME280;39663;45.432;28.050;2023-12-28T01:28:19;102525.15;;;10.13;37.15
52291;BME280;39663;45.432;28.050;2023-12-28T01:28:50;102522.64;;;10.06;36.04
52291;BME280;39663;45.432;28.050;2023-12-28T01:29:22;102523.36;;;10.30;34.95
52291;BME280;39663;45.432;28.050;2023-12-28T01:29:53;102524.22;;;10.19;35.34
52291;BME280;39663;45.432;28.050;2023-12-28T01:30:25;102524.50;;;10.12;35.18
52291;BME280;39663;45.432;28.050;2023-12-28T01:30:56;102520.72;;;10.03;34.79
52291;BME280;39663;45.432;28.050;2023-12-28T01:31:27;102521.82;;;9.92;36.84
52291;BME280;39663;45.432;28.050;2023-12-28T01:31:59;102524.67;;;9.97;37.62
52291;BME280;39663;45.432;28.050;2023-12-28T01:32:30;102524.27;;;9.85;37.65
52291;BME280;39663;45.432;28.050;2023-12-28T01:33:02;102520.64;;;10.16;36.19
52291;BME280;39663;45.432;28.050;2023-12-28T01:33:33;102520.21;;;10.19;35.65
52291;BME280;39663;45.432;28.050;2023-12-28T01:34:04;102519.91;;;10.11;37.96
52291;BME280;39663;45.432;28.050;2023-12-28T01:34:36;102519.87;;;10.30;36.68
52291;BME280;39663;45.432;28.050;2023-12-28T01:35:08;102521.14;;;10.09;37.75
52291;BME280;39663;45.432;28.050;2023-12-28T01:35:39;102521.20;;;10.47;37.20
52291;BME280;39663;45.432;28.050;2023-12-28T01:36:19;102520.54;;;10.53;37.56
52291;BME280;39663;45.432;28.050;2023-12-28T01:36:50;102520.37;;;10.69;37.20
52291;BME280;39663;45.432;28.050;2023-12-28T01:37:23;102515.23;;;10.64;36.57
52291;BME280;39663;45.432;28.050;2023-12-28T01:37:55;102515.44;;;10.80;35.75
52291;BME280;39663;45.432;28.050;2023-12-28T01:38:27;102513.20;;;11.03;34.21
52291;BME280;39663;45.432;28.050;2023-12-28T01:38:58;102514.97;;;10.39;33.91
52291;BME280;39663;45.432;28.050;2023-12-28T01:39:30;102517.33;;;10.61;36.22
52291;BME280;39663;45.432;28.050;2023-12-28T01:40:01;102516.76;;;10.44;35.99
52291;BME280;39663;45.432;28.050;2023-12-28T01:40:33;102519.18;;;10.70;36.28
52291;BME280;39663;45.432;28.050;2023-12-28T01:41:04;102518.95;;;10.55;35.74
52291;BME280;39663;45.432;28.050;2023-12-28T01:41:36;102518.32;;;10.75;35.45
52291;BME280;39663;45.432;28.050;2023-12-28T01:42:07;102517.39;;;10.73;34.50
52291;BME280;39663;45.432;28.050;2023-12-28T01:42:39;102516.72;;;10.77;34.36
52291;BME280;39663;45.432;28.050;2023-12-28T01:43:11;102515.21;;;10.73;34.83
52291;BME280;39663;45.432;28.050;2023-12-28T01:43:42;102515.05;;;10.93;34.17
52291;BME280;39663;45.432;28.050;2023-12-28T01:44:14;102514.45;;;10.68;34.24
52291;BME280;39663;45.432;28.050;2023-12-28T01:44:46;102514.11;;;10.58;35.32
52291;BME280;39663;45.432;28.050;2023-12-28T01:45:17;102516.21;;;10.38;36.46
52291;BME280;39663;45.432;28.050;2023-12-28T01:45:49;102515.16;;;10.47;36.34
52291;BME280;39663;45.432;28.050;2023-12-28T01:46:21;102513.36;;;10.56;34.94
52291;BME280;39663;45.432;28.050;2023-12-28T01:46:53;102514.17;;;10.86;34.29
52291;BME280;39663;45.432;28.050;2023-12-28T01:47:25;102515.46;;;10.63;35.46
52291;BME280;39663;45.432;28.050;2023-12-28T01:47:58;102514.09;;;11.08;33.97
52291;BME280;39663;45.432;28.050;2023-12-28T01:48:30;102512.09;;;10.81;33.71
52291;BME280;39663;45.432;28.050;2023-12-28T01:49:03;102513.59;;;10.74;33.81
52291;BME280;39663;45.432;28.050;2023-12-28T01:49:35;102514.29;;;10.63;34.79
52291;BME280;39663;45.432;28.050;2023-12-28T01:50:07;102509.96;;;10.18;34.13
52291;BME280;39663;45.432;28.050;2023-12-28T01:50:40;102506.98;;;10.13;34.18
52291;BME280;39663;45.432;28.050;2023-12-28T01:51:12;102507.89;;;10.28;36.22
52291;BME280;39663;45.432;28.050;2023-12-28T01:51:45;102505.65;;;10.08;37.03
52291;BME280;39663;45.432;28.050;2023-12-28T01:52:19;102505.74;;;10.35;36.63
52291;BME280;39663;45.432;28.050;2023-12-28T01:52:51;102501.36;;;10.26;36.36
52291;BME280;39663;45.432;28.050;2023-12-28T01:53:23;102498.71;;;10.61;35.15
52291;BME280;39663;45.432;28.050;2023-12-28T01:53:55;102498.84;;;10.31;35.70
52291;BME280;39663;45.432;28.050;2023-12-28T01:54:27;102497.29;;;10.77;35.29
52291;BME280;39663;45.432;28.050;2023-12-28T01:54:59;102494.79;;;10.77;33.85
52291;BME280;39663;45.432;28.050;2023-12-28T01:55:32;102493.82;;;10.42;33.76
52291;BME280;39663;45.432;28.050;2023-12-28T01:56:04;102496.15;;;10.30;34.04
52291;BME280;39663;45.432;28.050;2023-12-28T01:56:37;102495.69;;;10.33;34.08
52291;BME280;39663;45.432;28.050;2023-12-28T01:57:09;102494.24;;;9.76;34.29
52291;BME280;39663;45.432;28.050;2023-12-28T01:57:42;102494.61;;;9.68;34.74
52291;BME280;39663;45.432;28.050;2023-12-28T01:58:13;102493.93;;;9.32;35.15
52291;BME280;39663;45.432;28.050;2023-12-28T01:58:47;102494.29;;;9.22;35.22
52291;BME280;39663;45.432;28.050;2023-12-28T02:01:36;102495.68;;;8.86;35.61
52291;BME280;39663;45.432;28.050;2023-12-28T02:02:08;102496.84;;;8.79;35.91
52291;BME280;39663;45.432;28.050;2023-12-28T02:02:40;102497.12;;;9.18;35.91
52291;BME280;39663;45.432;28.050;2023-12-28T02:03:12;102497.82;;;8.75;37.14
52291;BME280;39663;45.432;28.050;2023-12-28T02:03:44;102498.00;;;8.78;37.33
52291;BME280;39663;45.432;28.050;2023-12-28T02:04:15;102496.49;;;8.93;36.33
52291;BME280;39663;45.432;28.050;2023-12-28T02:04:47;102494.95;;;8.73;36.79
52291;BME280;39663;45.432;28.050;2023-12-28T02:05:19;102495.04;;;9.23;36.50
52291;BME280;39663;45.432;28.050;2023-12-28T02:05:51;102493.42;;;9.02;36.77
52291;BME280;39663;45.432;28.050;2023-12-28T02:06:24;102493.82;;;9.00;36.13
52291;BME280;39663;45.432;28.050;2023-12-28T02:06:57;102495.34;;;8.90;36.72
52291;BME280;39663;45.432;28.050;2023-12-28T02:07:30;102496.17;;;8.68;37.61
52291;BME280;39663;45.432;28.050;2023-12-28T02:08:04;102494.89;;;8.89;37.50
52291;BME280;39663;45.432;28.050;2023-12-28T02:08:36;102496.65;;;8.80;37.86
52291;BME280;39663;45.432;28.050;2023-12-28T02:09:07;102498.09;;;8.90;37.66
52291;BME280;39663;45.432;28.050;2023-12-28T02:09:39;102498.41;;;9.19;37.53
52291;BME280;39663;45.432;28.050;2023-12-28T02:10:10;102499.07;;;8.88;37.79
52291;BME280;39663;45.432;28.050;2023-12-28T02:10:42;102498.59;;;9.38;37.65
52291;BME280;39663;45.432;28.050;2023-12-28T02:11:14;102498.11;;;9.82;36.95
52291;BME280;39663;45.432;28.050;2023-12-28T02:11:45;102497.17;;;9.79;35.43
52291;BME280;39663;45.432;28.050;2023-12-28T02:12:17;102498.92;;;10.04;36.73
52291;BME280;39663;45.432;28.050;2023-12-28T02:12:49;102498.75;;;10.11;36.28
52291;BME280;39663;45.432;28.050;2023-12-28T02:13:20;102497.70;;;10.16;35.00
52291;BME280;39663;45.432;28.050;2023-12-28T02:13:52;102498.03;;;9.12;36.29
52291;BME280;39663;45.432;28.050;2023-12-28T02:14:25;102495.70;;;9.22;35.94
52291;BME280;39663;45.432;28.050;2023-12-28T02:14:56;102494.50;;;9.90;35.69
52291;BME280;39663;45.432;28.050;2023-12-28T02:15:28;102494.82;;;9.86;35.88
52291;BME280;39663;45.432;28.050;2023-12-28T02:16:03;102495.26;;;10.17;34.96
52291;BME280;39663;45.432;28.050;2023-12-28T02:16:43;102493.69;;;10.22;34.42
52291;BME280;39663;45.432;28.050;2023-12-28T02:17:22;102495.02;;;10.09;34.18
52291;BME280;39663;45.432;28.050;2023-12-28T02:18:00;102494.36;;;10.06;34.48
52291;BME280;39663;45.432;28.050;2023-12-28T02:18:39;102495.38;;;9.68;34.78
52291;BME280;39663;45.432;28.050;2023-12-28T02:19:20;102494.25;;;9.19;35.44
52291;BME280;39663;45.432;28.050;2023-12-28T02:19:55;102493.41;;;8.95;35.64
52291;BME280;39663;45.432;28.050;2023-12-28T02:20:28;102491.90;;;8.58;36.20
52291;BME280;39663;45.432;28.050;2023-12-28T02:21:04;102495.09;;;8.24;36.61
52291;BME280;39663;45.432;28.050;2023-12-28T02:21:37;102496.22;;;8.38;36.84
52291;BME280;39663;45.432;28.050;2023-12-28T02:22:09;102497.04;;;7.85;37.36
52291;BME280;39663;45.432;28.050;2023-12-28T02:22:42;102498.32;;;7.83;37.64
52291;BME280;39663;45.432;28.050;2023-12-28T02:23:14;102497.26;;;7.85;37.40
52291;BME280;39663;45.432;28.050;2023-12-28T02:23:47;102500.89;;;7.72;37.71
52291;BME280;39663;45.432;28.050;2023-12-28T02:24:19;102496.95;;;8.12;37.46
52291;BME280;39663;45.432;28.050;2023-12-28T02:25:01;102497.22;;;8.42;37.69
52291;BME280;39663;45.432;28.050;2023-12-28T02:25:33;102498.56;;;8.28;38.20
52291;BME280;39663;45.432;28.050;2023-12-28T02:26:04;102498.85;;;8.40;38.66
52291;BME280;39663;45.432;28.050;2023-12-28T02:26:35;102495.76;;;8.42;37.24
52291;BME280;39663;45.432;28.050;2023-12-28T02:27:07;102497.71;;;8.28;37.39
52291;BME280;39663;45.432;28.050;2023-12-28T02:27:40;102496.07;;;8.26;37.68
52291;BME280;39663;45.432;28.050;2023-12-28T02:28:12;102496.65;;;8.11;37.76
52291;BME280;39663;45.432;28.050;2023-12-28T02:28:44;102498.38;;;7.99;37.64
52291;BME280;39663;45.432;28.050;2023-12-28T02:29:16;102496.57;;;8.12;37.66
52291;BME280;39663;45.432;28.050;2023-12-28T02:29:48;102496.26;;;8.26;37.75
52291;BME280;39663;45.432;28.050;2023-12-28T02:30:21;102494.95;;;8.30;37.99
52291;BME280;39663;45.432;28.050;2023-12-28T02:30:54;102494.88;;;8.32;37.64
52291;BME280;39663;45.432;28.050;2023-12-28T02:31:31;102497.06;;;8.47;37.81
52291;BME280;39663;45.432;28.050;2023-12-28T02:32:08;102497.37;;;8.31;37.62
52291;BME280;39663;45.432;28.050;2023-12-28T02:32:51;102499.37;;;8.24;38.08
52291;BME280;39663;45.432;28.050;2023-12-28T02:33:29;102501.74;;;8.40;37.85
52291;BME280;39663;45.432;28.050;2023-12-28T02:34:08;102504.45;;;8.19;38.06
52291;BME280;39663;45.432;28.050;2023-12-28T02:34:43;102505.47;;;8.40;37.86
52291;BME280;39663;45.432;28.050;2023-12-28T02:35:19;102505.41;;;8.17;38.17
52291;BME280;39663;45.432;28.050;2023-12-28T02:35:55;102509.39;;;8.13;38.00
52291;BME280;39663;45.432;28.050;2023-12-28T02:36:27;102510.91;;;8.08;38.98
52291;BME280;39663;45.432;28.050;2023-12-28T02:36:59;102512.71;;;8.08;39.49
52291;BME280;39663;45.432;28.050;2023-12-28T02:37:33;102513.88;;;8.30;38.71
52291;BME280;39663;45.432;28.050;2023-12-28T02:38:08;102515.13;;;8.53;37.78
52291;BME280;39663;45.432;28.050;2023-12-28T02:38:41;102516.78;;;8.53;38.13
52291;BME280;39663;45.432;28.050;2023-12-28T02:39:15;102518.31;;;8.57;37.77
52291;BME280;39663;45.432;28.050;2023-12-28T02:39:50;102522.26;;;8.56;37.66
52291;BME280;39663;45.432;28.050;2023-12-28T02:40:24;102520.84;;;8.58;37.88
52291;BME280;39663;45.432;28.050;2023-12-28T02:40:56;102520.76;;;8.42;37.61
52291;BME280;39663;45.432;28.050;2023-12-28T02:41:27;102521.40;;;8.63;37.55
52291;BME280;39663;45.432;28.050;2023-12-28T02:41:59;102521.84;;;8.59;37.72
52291;BME280;39663;45.432;28.050;2023-12-28T02:42:31;102521.94;;;8.64;37.55
52291;BME280;39663;45.432;28.050;2023-12-28T02:43:02;102522.33;;;8.58;37.32
52291;BME280;39663;45.432;28.050;2023-12-28T02:43:35;102522.36;;;8.38;37.61
52291;BME280;39663;45.432;28.050;2023-12-28T02:44:06;102521.49;;;8.41;37.85
52291;BME280;39663;45.432;28.050;2023-12-28T02:44:38;102521.38;;;8.37;38.07
52291;BME280;39663;45.432;28.050;2023-12-28T02:45:09;102522.66;;;8.35;38.02
52291;BME280;39663;45.432;28.050;2023-12-28T02:45:41;102519.57;;;8.45;38.07
52291;BME280;39663;45.432;28.050;2023-12-28T02:46:12;102517.75;;;8.49;38.18
52291;BME280;39663;45.432;28.050;2023-12-28T02:46:44;102518.47;;;8.62;37.70
52291;BME280;39663;45.432;28.050;2023-12-28T02:47:15;102516.13;;;8.65;37.89
52291;BME280;39663;45.432;28.050;2023-12-28T02:47:47;102511.82;;;8.64;37.65
52291;BME280;39663;45.432;28.050;2023-12-28T02:48:18;102510.11;;;8.62;38.13
52291;BME280;39663;45.432;28.050;2023-12-28T02:48:50;102510.15;;;8.70;37.69
52291;BME280;39663;45.432;28.050;2023-12-28T02:49:21;102506.91;;;8.60;37.10
52291;BME280;39663;45.432;28.050;2023-12-28T02:49:53;102504.80;;;8.40;37.25
52291;BME280;39663;45.432;28.050;2023-12-28T02:50:26;102508.14;;;8.24;37.64
52291;BME280;39663;45.432;28.050;2023-12-28T02:50:57;102507.10;;;7.88;37.79
52291;BME280;39663;45.432;28.050;2023-12-28T02:51:29;102508.29;;;7.94;38.15
52291;BME280;39663;45.432;28.050;2023-12-28T02:52:00;102506.39;;;7.87;38.35
52291;BME280;39663;45.432;28.050;2023-12-28T02:52:32;102507.53;;;8.15;38.10
52291;BME280;39663;45.432;28.050;2023-12-28T02:53:04;102509.50;;;7.88;39.58
52291;BME280;39663;45.432;28.050;2023-12-28T02:53:35;102510.72;;;7.93;39.86